Time;durP1;ratioP1;P1;durP2;ratioP2;P2;SDS_P1;SDS_P2;PMS_P1;PMS_P2;Temp;Humidity;BMP_temperature;BMP_pressure;BME280_temperature;BME280_humidity;BME280_pressure;Samples;Min_cycle;Max_cycle;Signal;HPM_P1;HPM_P2
2022/12/30 00:00:24;;;;;;;0.00;0.00;;;8.20;99.90;;;;;;5051498;28;20555;-63
2022/12/30 00:02:49;;;;;;;0.00;0.00;;;8.20;99.90;;;;;;5051512;28;20173;-62
2022/12/30 00:05:15;;;;;;;0.00;0.00;;;8.20;99.90;;;;;;5051910;28;20525;-63
2022/12/30 00:07:40;;;;;;;0.00;0.00;;;8.20;99.90;;;;;;5051375;28;20181;-62
2022/12/30 00:10:06;;;;;;;0.00;0.00;;;8.20;99.90;;;;;;5051676;28;20247;-63
2022/12/30 00:35:00;;;;;;;0.00;0.00;;;8.00;99.90;;;;;;5051517;28;20200;-63
2022/12/30 00:37:26;;;;;;;0.00;0.00;;;8.00;99.90;;;;;;5051845;28;20172;-63
2022/12/30 00:39:52;;;;;;;0.00;0.00;;;8.00;99.90;;;;;;5051488;28;20177;-63
2022/12/30 00:45:02;;;;;;;0.00;0.00;;;7.90;99.90;;;;;;5051416;28;20232;-63
2022/12/30 00:47:28;;;;;;;0.00;0.00;;;7.90;99.90;;;;;;5051503;28;20185;-63
2022/12/30 00:58:05;;;;;;;0.00;0.00;;;7.90;99.90;;;;;;5055610;28;20180;-63
2022/12/30 01:00:31;;;;;;;0.00;0.00;;;7.90;99.90;;;;;;5055203;28;20173;-62
2022/12/30 01:02:56;;;;;;;0.00;0.00;;;7.90;99.90;;;;;;5054017;28;20656;-63
2022/12/30 01:05:22;;;;;;;0.10;0.10;;;7.90;99.90;;;;;;5055189;28;20200;-63
2022/12/30 01:07:47;;;;;;;0.00;0.00;;;7.90;99.90;;;;;;5055360;28;20177;-63
2022/12/30 01:10:13;;;;;;;0.00;0.00;;;7.90;99.90;;;;;;5055053;28;20177;-63
2022/12/30 01:12:39;;;;;;;0.00;0.00;;;7.90;99.90;;;;;;5055068;28;20584;-63
2022/12/30 01:15:05;;;;;;;0.00;0.00;;;7.90;99.90;;;;;;5054908;28;20186;-63
2022/12/30 01:17:32;;;;;;;0.00;0.00;;;7.80;99.90;;;;;;5055258;28;20649;-62
2022/12/30 01:19:58;;;;;;;0.00;0.00;;;7.80;99.90;;;;;;5054758;28;20193;-63
2022/12/30 01:22:24;;;;;;;0.00;0.00;;;7.80;99.90;;;;;;5052452;28;20555;-63
2022/12/30 01:24:50;;;;;;;0.00;0.00;;;7.70;99.90;;;;;;5047614;28;20272;-63
2022/12/30 01:27:16;;;;;;;0.00;0.00;;;7.60;99.90;;;;;;5054824;28;20185;-63
2022/12/30 01:29:42;;;;;;;0.00;0.00;;;7.70;99.90;;;;;;5054763;28;20565;-62
2022/12/30 01:32:10;;;;;;;0.00;0.00;;;7.70;99.90;;;;;;5054517;28;20542;-63
2022/12/30 01:34:37;;;;;;;0.00;0.00;;;7.70;99.90;;;;;;5054628;28;20198;-63
2022/12/30 01:37:03;;;;;;;0.00;0.00;;;7.70;99.90;;;;;;5054755;28;20180;-63
2022/12/30 01:39:29;;;;;;;0.00;0.00;;;7.70;99.90;;;;;;5054541;28;20208;-63
2022/12/30 01:41:56;;;;;;;0.00;0.00;;;7.70;99.90;;;;;;5054687;28;20632;-63
2022/12/30 01:44:43;;;;;;;0.00;0.00;;;7.70;99.90;;;;;;5054876;28;20189;-63
2022/12/30 01:47:12;;;;;;;0.00;0.00;;;7.70;99.90;;;;;;5034669;28;20174;-62
2022/12/30 01:49:42;;;;;;;0.00;0.00;;;7.60;99.90;;;;;;5034025;28;20177;-63
2022/12/30 01:52:08;;;;;;;0.00;0.00;;;7.60;99.90;;;;;;5054558;28;20209;-63
2022/12/30 01:54:35;;;;;;;0.00;0.00;;;7.60;99.90;;;;;;5054565;28;20182;-63
2022/12/30 01:57:06;;;;;;;0.00;0.00;;;7.50;99.90;;;;;;5054138;28;20178;-63
2022/12/30 01:59:32;;;;;;;0.10;0.10;;;7.50;99.90;;;;;;5054479;28;20178;-63
2022/12/30 02:01:59;;;;;;;0.00;0.00;;;7.50;99.90;;;;;;5053118;28;20208;-63
2022/12/30 02:04:27;;;;;;;0.00;0.00;;;7.50;99.90;;;;;;5054506;28;20165;-63
2022/12/30 02:06:58;;;;;;;0.00;0.00;;;7.40;99.90;;;;;;5046881;28;20293;-63
2022/12/30 02:09:25;;;;;;;0.00;0.00;;;7.40;99.90;;;;;;5051668;28;20192;-63
2022/12/30 02:11:51;;;;;;;0.00;0.00;;;7.40;99.90;;;;;;5053374;28;20225;-63
2022/12/30 02:14:17;;;;;;;0.00;0.00;;;7.40;99.90;;;;;;5052845;28;20582;-63
2022/12/30 02:16:48;;;;;;;0.00;0.00;;;7.30;99.90;;;;;;5053801;28;20188;-63
2022/12/30 02:19:48;;;;;;;0.00;0.00;;;7.30;99.90;;;;;;5052666;28;20193;-63
2022/12/30 02:22:30;;;;;;;0.00;0.00;;;7.30;99.90;;;;;;5051183;28;20322;-63
2022/12/30 02:25:19;;;;;;;0.00;0.00;;;7.20;99.90;;;;;;5044508;28;20177;-63
2022/12/30 02:28:14;;;;;;;0.00;0.00;;;7.20;99.90;;;;;;5051380;28;20181;-63
2022/12/30 02:31:18;;;;;;;0.00;0.00;;;7.20;99.90;;;;;;5046431;28;20188;-63
2022/12/30 02:33:54;;;;;;;0.08;0.08;;;7.10;99.90;;;;;;5047363;28;20215;-63
2022/12/30 02:36:28;;;;;;;0.10;0.10;;;7.10;99.90;;;;;;5033792;28;20174;-63
2022/12/30 02:39:36;;;;;;;0.10;0.10;;;7.10;99.90;;;;;;5033396;28;20182;-63
2022/12/30 02:45:31;;;;;;;0.75;0.75;;;7.00;99.90;;;;;;5053598;28;20203;-62
2022/12/30 02:48:03;;;;;;;0.20;0.20;;;7.00;99.90;;;;;;5053359;28;20181;-63
2022/12/30 02:53:19;;;;;;;0.00;0.00;;;7.00;99.90;;;;;;5053387;28;20304;-63
2022/12/30 02:55:45;;;;;;;0.00;0.00;;;6.90;99.90;;;;;;5052720;28;20200;-63
2022/12/30 02:58:11;;;;;;;0.10;0.10;;;6.90;99.90;;;;;;5052890;28;20264;-63
2022/12/30 03:04:21;;;;;;;0.00;0.00;;;6.80;99.90;;;;;;5053365;28;20188;-63
2022/12/30 03:07:16;;;;;;;0.00;0.00;;;6.70;99.90;;;;;;5053309;28;20248;-63
2022/12/30 03:12:58;;;;;;;0.00;0.00;;;6.60;99.90;;;;;;5051603;28;20236;-63
2022/12/30 03:15:32;;;;;;;0.00;0.00;;;6.50;99.90;;;;;;5033128;28;20598;-63
2022/12/30 03:17:58;;;;;;;0.00;0.00;;;6.50;99.90;;;;;;5033703;28;20208;-63
2022/12/30 03:20:25;;;;;;;0.10;0.10;;;6.50;99.90;;;;;;5052982;28;20174;-63
2022/12/30 03:28:28;;;;;;;0.00;0.00;;;6.10;99.90;;;;;;5052667;28;20235;-66
2022/12/30 03:30:59;;;;;;;0.00;0.00;;;6.00;99.90;;;;;;5052313;28;20246;-63
2022/12/30 03:33:30;;;;;;;0.00;0.00;;;6.00;99.90;;;;;;5052116;28;20703;-63
2022/12/30 03:36:18;;;;;;;0.25;0.25;;;6.00;99.90;;;;;;5051531;28;20189;-63
2022/12/30 03:38:51;;;;;;;0.20;0.20;;;6.00;99.90;;;;;;5036411;28;20204;-62
2022/12/30 03:41:19;;;;;;;0.70;0.70;;;6.00;99.90;;;;;;5051645;28;20678;-63
2022/12/30 03:43:45;;;;;;;0.03;0.03;;;6.00;99.90;;;;;;5051956;28;20188;-63
2022/12/30 03:46:11;;;;;;;0.10;0.10;;;6.00;99.90;;;;;;5051568;28;20551;-63
2022/12/30 03:48:37;;;;;;;0.00;0.00;;;6.00;99.90;;;;;;5051561;28;20178;-63
2022/12/30 03:51:03;;;;;;;0.00;0.00;;;6.00;99.90;;;;;;5051640;28;20648;-63
2022/12/30 03:53:28;;;;;;;0.30;0.30;;;6.00;99.90;;;;;;5051923;28;20228;-63
2022/12/30 03:55:54;;;;;;;0.00;0.00;;;6.00;99.90;;;;;;5051778;28;20181;-63
2022/12/30 03:58:19;;;;;;;0.35;0.35;;;6.10;99.90;;;;;;5051809;28;20234;-63
2022/12/30 04:00:45;;;;;;;0.00;0.00;;;6.10;99.90;;;;;;5043648;28;20265;-63
2022/12/30 04:03:10;;;;;;;0.00;0.00;;;6.10;99.90;;;;;;5051709;28;20678;-63
2022/12/30 04:05:36;;;;;;;0.00;0.00;;;6.20;99.90;;;;;;5051924;28;20227;-63
2022/12/30 04:08:01;;;;;;;0.00;0.00;;;6.20;99.90;;;;;;5057106;28;20670;-63
2022/12/30 04:10:27;;;;;;;0.00;0.00;;;6.20;99.90;;;;;;5071994;28;20181;-63
2022/12/30 04:12:52;;;;;;;0.00;0.00;;;6.20;99.90;;;;;;5055871;28;20568;-62
2022/12/30 04:15:18;;;;;;;0.00;0.00;;;6.20;99.90;;;;;;5051767;28;20177;-63
2022/12/30 04:17:43;;;;;;;0.00;0.00;;;6.20;99.90;;;;;;5051640;28;20219;-63
2022/12/30 04:20:10;;;;;;;0.00;0.00;;;6.20;99.90;;;;;;5051882;28;20185;-63
2022/12/30 04:22:35;;;;;;;0.00;0.00;;;6.10;99.90;;;;;;5051399;28;20195;-62
2022/12/30 04:25:01;;;;;;;0.00;0.00;;;6.10;99.90;;;;;;5051397;28;20174;-63
2022/12/30 04:27:26;;;;;;;0.00;0.00;;;6.10;99.90;;;;;;5051445;28;20181;-63
2022/12/30 04:29:52;;;;;;;0.00;0.00;;;6.10;99.90;;;;;;5051658;28;20640;-62
2022/12/30 04:32:18;;;;;;;0.00;0.00;;;6.10;99.90;;;;;;5051030;28;20209;-62
2022/12/30 04:34:43;;;;;;;0.05;0.05;;;6.10;99.90;;;;;;5051034;28;20535;-63
2022/12/30 04:37:09;;;;;;;0.00;0.00;;;6.10;99.90;;;;;;5050803;28;20905;-63
2022/12/30 04:39:34;;;;;;;0.00;0.00;;;6.00;99.90;;;;;;5051898;28;20182;-63
2022/12/30 04:42:00;;;;;;;0.00;0.00;;;6.00;99.90;;;;;;5051343;28;20181;-63
2022/12/30 04:44:25;;;;;;;0.00;0.00;;;5.90;99.90;;;;;;5051710;28;20256;-63
2022/12/30 04:46:51;;;;;;;0.00;0.00;;;5.90;99.90;;;;;;5051265;28;20181;-63
2022/12/30 04:49:16;;;;;;;0.00;0.00;;;5.90;99.90;;;;;;5051618;28;20252;-63
2022/12/30 04:51:42;;;;;;;0.00;0.00;;;5.80;99.90;;;;;;5051144;28;20713;-63
2022/12/30 04:54:07;;;;;;;0.00;0.00;;;5.80;99.90;;;;;;5051401;28;20602;-63
2022/12/30 04:56:33;;;;;;;0.00;0.00;;;5.70;99.90;;;;;;5051098;28;20186;-62
2022/12/30 04:58:58;;;;;;;0.00;0.00;;;5.60;99.90;;;;;;5049789;28;20431;-63
2022/12/30 05:01:24;;;;;;;0.00;0.00;;;5.60;99.90;;;;;;5051137;28;20231;-63
2022/12/30 05:03:49;;;;;;;0.00;0.00;;;5.50;99.90;;;;;;5051337;28;20178;-63
2022/12/30 05:06:15;;;;;;;0.00;0.00;;;5.50;99.90;;;;;;5051387;28;20655;-63
2022/12/30 05:08:40;;;;;;;0.00;0.00;;;5.40;99.90;;;;;;5051049;28;20181;-63
2022/12/30 05:11:06;;;;;;;0.00;0.00;;;5.40;99.90;;;;;;5050875;28;20231;-63
2022/12/30 05:13:32;;;;;;;0.00;0.00;;;5.40;99.90;;;;;;5051024;28;20303;-63
2022/12/30 05:15:57;;;;;;;0.00;0.00;;;5.30;99.90;;;;;;5050942;28;20278;-63
2022/12/30 05:18:23;;;;;;;0.00;0.00;;;5.30;99.90;;;;;;5051585;28;20177;-63
2022/12/30 05:20:49;;;;;;;0.00;0.00;;;5.20;99.90;;;;;;5050902;28;20223;-63
2022/12/30 05:26:14;;;;;;;0.00;0.00;;;5.20;99.90;;;;;;5051562;28;20188;-63
2022/12/30 05:28:40;;;;;;;0.00;0.00;;;5.10;99.90;;;;;;5046915;28;20190;-63
2022/12/30 05:31:06;;;;;;;0.00;0.00;;;5.10;99.90;;;;;;5051342;28;20173;-63
2022/12/30 05:33:32;;;;;;;0.00;0.00;;;5.00;99.90;;;;;;5051006;28;20576;-63
2022/12/30 05:35:57;;;;;;;0.00;0.00;;;5.00;99.90;;;;;;5051681;28;20185;-63
2022/12/30 05:38:23;;;;;;;0.00;0.00;;;5.00;99.90;;;;;;5054980;28;20178;-63
2022/12/30 05:40:50;;;;;;;0.10;0.10;;;5.00;99.90;;;;;;5054433;28;20186;-63
2022/12/30 05:43:16;;;;;;;0.00;0.00;;;5.00;99.90;;;;;;5054304;28;20185;-63
2022/12/30 05:45:41;;;;;;;0.10;0.10;;;4.90;99.90;;;;;;5054597;28;20173;-63
2022/12/30 05:48:07;;;;;;;0.00;0.00;;;4.90;99.90;;;;;;5054241;28;20192;-63
2022/12/30 05:50:32;;;;;;;0.00;0.00;;;4.80;99.90;;;;;;5054603;28;20640;-63
2022/12/30 05:52:58;;;;;;;0.00;0.00;;;4.80;99.90;;;;;;5054000;28;20702;-63
2022/12/30 05:55:24;;;;;;;0.00;0.00;;;4.80;99.90;;;;;;5054499;28;20180;-63
2022/12/30 05:57:49;;;;;;;0.00;0.00;;;4.70;99.90;;;;;;5053816;28;20181;-63
2022/12/30 06:00:15;;;;;;;0.00;0.00;;;4.70;99.90;;;;;;5054364;28;20751;-63
2022/12/30 06:02:41;;;;;;;0.15;0.15;;;4.70;99.90;;;;;;5054043;28;20659;-63
2022/12/30 06:05:07;;;;;;;0.05;0.05;;;4.70;99.90;;;;;;5053616;28;20546;-63
2022/12/30 06:07:32;;;;;;;0.00;0.00;;;4.70;99.90;;;;;;5053481;28;20308;-63
2022/12/30 06:09:58;;;;;;;0.00;0.00;;;4.70;99.90;;;;;;5053903;28;20263;-63
2022/12/30 06:12:23;;;;;;;0.00;0.00;;;4.70;99.90;;;;;;5052744;28;20745;-63
2022/12/30 06:14:49;;;;;;;0.00;0.00;;;4.60;99.90;;;;;;5053538;28;20190;-63
2022/12/30 06:17:15;;;;;;;0.00;0.00;;;4.60;99.90;;;;;;5053732;28;20177;-63
2022/12/30 06:19:40;;;;;;;0.00;0.00;;;4.60;99.90;;;;;;5054123;28;20178;-63
2022/12/30 06:22:05;;;;;;;0.08;0.08;;;4.60;99.90;;;;;;5053546;28;20291;-63
2022/12/30 06:24:31;;;;;;;0.00;0.00;;;4.60;99.90;;;;;;5032834;28;20249;-63
2022/12/30 06:26:57;;;;;;;0.00;0.00;;;4.50;99.90;;;;;;5046007;28;20181;-63
2022/12/30 06:29:22;;;;;;;0.00;0.00;;;4.50;99.90;;;;;;5053492;28;20637;-63
2022/12/30 06:31:48;;;;;;;0.00;0.00;;;4.40;99.90;;;;;;5053470;28;20266;-63
2022/12/30 06:34:13;;;;;;;0.10;0.10;;;4.40;99.90;;;;;;5053557;28;20178;-63
2022/12/30 06:36:39;;;;;;;0.00;0.00;;;4.40;99.90;;;;;;5053401;28;20181;-63
2022/12/30 06:39:04;;;;;;;0.00;0.00;;;4.30;99.90;;;;;;5053570;28;20272;-63
2022/12/30 06:41:30;;;;;;;0.00;0.00;;;4.30;99.90;;;;;;5053117;28;20283;-63
2022/12/30 06:43:55;;;;;;;0.00;0.00;;;4.30;99.90;;;;;;5053201;28;20185;-63
2022/12/30 06:46:21;;;;;;;0.00;0.00;;;4.20;99.90;;;;;;5053238;28;20181;-64
2022/12/30 06:48:46;;;;;;;0.00;0.00;;;4.20;99.90;;;;;;5053546;28;20169;-63
2022/12/30 06:51:12;;;;;;;0.00;0.00;;;4.20;99.90;;;;;;5053108;28;20185;-63
2022/12/30 06:53:37;;;;;;;0.00;0.00;;;4.20;99.90;;;;;;5053516;28;20239;-63
2022/12/30 06:56:03;;;;;;;0.63;0.63;;;4.20;99.90;;;;;;5051761;28;20239;-63
2022/12/30 06:58:29;;;;;;;0.00;0.00;;;4.20;99.90;;;;;;5053066;28;20178;-63
2022/12/30 07:00:55;;;;;;;0.00;0.00;;;4.10;99.90;;;;;;5053292;28;20185;-64
2022/12/30 07:03:20;;;;;;;0.00;0.00;;;4.10;99.90;;;;;;5053557;28;20544;-63
2022/12/30 07:05:46;;;;;;;0.00;0.00;;;4.10;99.90;;;;;;5064175;28;20178;-63
2022/12/30 07:08:11;;;;;;;0.05;0.05;;;4.10;99.90;;;;;;5053046;28;20220;-63
2022/12/30 07:10:37;;;;;;;0.13;0.13;;;4.00;99.90;;;;;;5051520;28;20644;-64
2022/12/30 07:13:03;;;;;;;0.00;0.00;;;4.00;99.90;;;;;;5053003;28;20236;-63
2022/12/30 07:15:28;;;;;;;0.00;0.00;;;4.00;99.90;;;;;;5053394;28;20653;-63
2022/12/30 07:17:54;;;;;;;0.10;0.10;;;4.00;99.90;;;;;;5048077;28;20758;-63
2022/12/30 07:20:19;;;;;;;0.10;0.10;;;4.10;99.90;;;;;;5052730;28;20180;-62
2022/12/30 07:22:45;;;;;;;0.05;0.05;;;4.00;99.90;;;;;;5047451;28;20182;-62
2022/12/30 07:25:10;;;;;;;0.10;0.10;;;4.10;99.90;;;;;;5050897;28;20672;-62
2022/12/30 07:27:36;;;;;;;0.10;0.10;;;4.10;99.90;;;;;;5052697;28;20185;-63
2022/12/30 07:30:02;;;;;;;0.10;0.10;;;4.20;99.90;;;;;;5052590;28;20181;-63
2022/12/30 07:32:28;;;;;;;0.00;0.00;;;4.20;99.90;;;;;;5052634;28;20219;-66
2022/12/30 07:34:53;;;;;;;0.00;0.00;;;4.30;99.90;;;;;;5052502;28;20264;-65
2022/12/30 07:37:19;;;;;;;0.00;0.00;;;4.30;99.90;;;;;;5052616;28;20184;-64
2022/12/30 07:39:45;;;;;;;0.00;0.00;;;4.40;99.90;;;;;;5052547;28;20178;-62
2022/12/30 07:42:10;;;;;;;0.00;0.00;;;4.40;99.90;;;;;;5052404;28;20185;-61
2022/12/30 07:44:37;;;;;;;0.00;0.00;;;4.40;99.90;;;;;;5052453;28;20296;-66
2022/12/30 07:47:04;;;;;;;0.00;0.00;;;4.50;99.90;;;;;;5052105;28;20260;-62
2022/12/30 07:49:29;;;;;;;0.00;0.00;;;4.60;99.90;;;;;;5052228;28;20185;-64
2022/12/30 07:51:55;;;;;;;0.00;0.00;;;4.60;99.90;;;;;;5050695;28;20173;-67
2022/12/30 07:54:20;;;;;;;0.20;0.20;;;4.60;99.90;;;;;;5051663;28;20611;-66
2022/12/30 07:56:46;;;;;;;0.47;0.47;;;4.60;99.90;;;;;;5051955;28;20273;-65
2022/12/30 07:59:12;;;;;;;0.03;0.03;;;4.70;99.90;;;;;;5051010;28;20184;-65
2022/12/30 08:01:37;;;;;;;0.00;0.00;;;4.70;99.90;;;;;;5052163;28;20178;-66
2022/12/30 08:04:03;;;;;;;0.10;0.10;;;4.70;99.90;;;;;;5052096;28;20207;-65
2022/12/30 08:06:29;;;;;;;0.00;0.00;;;4.80;99.90;;;;;;5052095;28;20217;-66
2022/12/30 08:08:54;;;;;;;0.00;0.00;;;4.80;99.90;;;;;;5052283;28;20189;-65
2022/12/30 08:11:20;;;;;;;0.00;0.00;;;4.90;99.90;;;;;;5051245;28;20220;-66
2022/12/30 08:13:45;;;;;;;0.00;0.00;;;4.90;99.90;;;;;;5050708;28;20209;-66
2022/12/30 08:16:15;;;;;;;0.00;0.00;;;5.00;99.90;;;;;;5052050;28;20262;-66
2022/12/30 08:18:40;;;;;;;0.00;0.00;;;5.00;99.90;;;;;;5051837;28;20185;-66
2022/12/30 08:21:09;;;;;;;0.00;0.00;;;5.10;99.90;;;;;;5051917;28;20177;-66
2022/12/30 08:23:35;;;;;;;0.00;0.00;;;5.20;99.90;;;;;;5051919;28;20185;-65
2022/12/30 08:26:11;;;;;;;0.00;0.00;;;5.30;99.90;;;;;;5051779;28;20188;-65
2022/12/30 08:28:37;;;;;;;0.00;0.00;;;5.40;99.90;;;;;;5051217;28;20506;-66
2022/12/30 08:31:06;;;;;;;0.00;0.00;;;5.50;99.90;;;;;;5051745;28;20173;-65
2022/12/30 08:33:32;;;;;;;0.00;0.00;;;5.60;99.90;;;;;;5051694;28;20231;-65
2022/12/30 08:36:05;;;;;;;0.10;0.10;;;5.70;99.90;;;;;;5051785;28;20637;-65
2022/12/30 08:38:33;;;;;;;0.00;0.00;;;5.80;99.90;;;;;;5051895;28;20268;-66
2022/12/30 08:41:21;;;;;;;0.00;0.00;;;5.90;99.90;;;;;;5051652;28;20220;-65
2022/12/30 08:43:48;;;;;;;0.00;0.00;;;6.00;99.90;;;;;;5051861;28;20177;-65
2022/12/30 08:46:15;;;;;;;0.00;0.00;;;6.20;99.90;;;;;;5051543;28;20185;-65
2022/12/30 08:48:40;;;;;;;0.00;0.00;;;6.30;99.90;;;;;;5051799;28;20657;-65
2022/12/30 08:51:07;;;;;;;0.00;0.00;;;6.40;99.90;;;;;;5051729;28;20170;-65
2022/12/30 08:53:33;;;;;;;0.00;0.00;;;6.60;99.90;;;;;;5051656;28;20275;-65
2022/12/30 08:56:23;;;;;;;0.00;0.00;;;6.70;99.90;;;;;;5051545;28;20170;-65
2022/12/30 08:58:48;;;;;;;0.00;0.00;;;6.80;99.90;;;;;;5051628;28;20686;-66
2022/12/30 09:01:18;;;;;;;0.00;0.00;;;6.90;99.90;;;;;;5050459;28;20169;-66
2022/12/30 09:03:44;;;;;;;0.00;0.00;;;7.00;99.90;;;;;;5050994;28;20197;-66
2022/12/30 09:06:12;;;;;;;0.00;0.00;;;7.10;99.90;;;;;;5053628;28;20181;-66
2022/12/30 09:08:39;;;;;;;0.00;0.00;;;7.20;99.90;;;;;;5056151;28;20174;-66
2022/12/30 09:11:08;;;;;;;0.00;0.00;;;7.30;99.90;;;;;;5052153;28;20233;-65
2022/12/30 09:13:36;;;;;;;0.00;0.00;;;7.40;99.90;;;;;;5054837;28;20771;-65
2022/12/30 09:16:03;;;;;;;0.00;0.00;;;7.50;99.90;;;;;;5054928;28;20189;-65
2022/12/30 09:18:28;;;;;;;0.00;0.00;;;7.50;99.90;;;;;;5054155;28;20672;-65
2022/12/30 09:20:54;;;;;;;0.00;0.00;;;7.70;99.90;;;;;;5054815;28;20186;-65
2022/12/30 09:23:19;;;;;;;0.00;0.00;;;7.70;99.90;;;;;;5054863;28;20243;-65
2022/12/30 09:25:45;;;;;;;0.00;0.00;;;7.90;99.90;;;;;;5055125;28;20177;-65
2022/12/30 09:28:10;;;;;;;0.00;0.00;;;8.00;99.90;;;;;;5054694;28;20190;-65
2022/12/30 09:30:36;;;;;;;0.00;0.00;;;8.10;99.90;;;;;;5054661;28;20181;-65
2022/12/30 09:33:02;;;;;;;0.00;0.00;;;8.20;99.90;;;;;;5054838;28;20578;-66
2022/12/30 09:35:27;;;;;;;0.00;0.00;;;8.20;99.90;;;;;;5054617;28;20690;-65
2022/12/30 09:37:53;;;;;;;0.00;0.00;;;8.30;99.90;;;;;;5054852;28;20200;-66
2022/12/30 09:40:44;;;;;;;0.00;0.00;;;8.40;99.90;;;;;;5054266;28;20181;-65
2022/12/30 09:43:29;;;;;;;0.00;0.00;;;8.40;99.90;;;;;;5054423;28;20208;-66
2022/12/30 09:46:10;;;;;;;0.00;0.00;;;8.50;99.90;;;;;;5054653;28;20181;-66
2022/12/30 09:49:03;;;;;;;0.00;0.00;;;8.60;99.90;;;;;;5054642;28;20185;-65
2022/12/30 09:51:44;;;;;;;0.00;0.00;;;8.60;99.90;;;;;;5054009;28;20212;-66
2022/12/30 09:54:19;;;;;;;0.00;0.00;;;8.70;99.90;;;;;;5054609;28;20217;-66
2022/12/30 09:56:48;;;;;;;0.00;0.00;;;8.70;99.90;;;;;;5054533;28;20193;-66
2022/12/30 09:59:20;;;;;;;0.00;0.00;;;8.80;99.90;;;;;;5054334;28;20263;-66
2022/12/30 10:02:12;;;;;;;0.00;0.00;;;8.90;99.90;;;;;;5053069;28;20197;-66
2022/12/30 10:04:38;;;;;;;0.00;0.00;;;8.90;99.90;;;;;;5042625;28;20196;-66
2022/12/30 10:07:21;;;;;;;0.00;0.00;;;8.90;99.90;;;;;;5054232;28;20178;-66
2022/12/30 10:09:54;;;;;;;0.00;0.00;;;8.90;99.90;;;;;;5054077;28;20181;-66
2022/12/30 10:12:41;;;;;;;0.00;0.00;;;8.90;99.90;;;;;;5053995;28;20554;-67
2022/12/30 10:15:07;;;;;;;0.00;0.00;;;8.90;99.90;;;;;;5053874;28;20274;-66
2022/12/30 10:17:46;;;;;;;0.00;0.00;;;8.90;99.90;;;;;;5053889;28;20223;-66
2022/12/30 10:20:47;;;;;;;0.00;0.00;;;8.90;99.90;;;;;;5054017;28;20192;-66
2022/12/30 10:23:20;;;;;;;0.00;0.00;;;9.00;99.90;;;;;;5053226;28;20652;-66
2022/12/30 10:26:10;;;;;;;0.00;0.00;;;9.00;99.90;;;;;;5053987;28;20177;-66
2022/12/30 10:28:41;;;;;;;0.00;0.00;;;9.10;99.90;;;;;;5034731;28;20863;-66
2022/12/30 10:31:17;;;;;;;0.00;0.00;;;9.10;99.90;;;;;;5053500;28;20177;-66
2022/12/30 10:33:42;;;;;;;0.00;0.00;;;9.20;99.90;;;;;;5052415;28;20710;-66
2022/12/30 10:36:20;;;;;;;0.00;0.00;;;9.20;99.90;;;;;;5053105;28;20190;-66
2022/12/30 10:38:45;;;;;;;0.00;0.00;;;9.30;99.90;;;;;;5053231;28;20181;-66
2022/12/30 10:41:30;;;;;;;0.00;0.00;;;9.30;99.90;;;;;;5053056;28;20216;-66
2022/12/30 10:44:24;;;;;;;0.00;0.00;;;9.30;99.90;;;;;;5053074;28;20253;-66
2022/12/30 10:47:24;;;;;;;0.00;0.00;;;9.40;99.90;;;;;;5052915;28;20189;-66
2022/12/30 10:49:55;;;;;;;0.00;0.00;;;9.40;99.90;;;;;;5053264;28;20177;-66
2022/12/30 10:52:21;;;;;;;0.00;0.00;;;9.40;99.90;;;;;;5052974;28;20209;-66
2022/12/30 10:54:48;;;;;;;0.00;0.00;;;9.40;99.90;;;;;;5053023;28;20189;-66
2022/12/30 10:57:25;;;;;;;0.00;0.00;;;9.40;99.90;;;;;;5053116;28;20722;-66
2022/12/30 10:59:55;;;;;;;0.00;0.00;;;9.40;99.90;;;;;;5051711;28;20214;-66
2022/12/30 11:02:35;;;;;;;0.00;0.00;;;9.40;99.90;;;;;;5052817;28;20703;-66
2022/12/30 11:05:02;;;;;;;0.00;0.00;;;9.40;99.90;;;;;;5053068;28;20169;-65
2022/12/30 11:07:28;;;;;;;0.03;0.03;;;9.30;99.90;;;;;;5053479;28;20177;-66
2022/12/30 11:09:53;;;;;;;0.00;0.00;;;9.40;99.90;;;;;;5053019;28;20964;-66
2022/12/30 11:15:17;;;;;;;0.00;0.00;;;9.40;99.90;;;;;;5052555;28;20685;-66
2022/12/30 11:17:47;;;;;;;0.00;0.00;;;9.50;99.90;;;;;;5052700;28;20169;-66
2022/12/30 11:20:12;;;;;;;0.00;0.00;;;9.50;99.90;;;;;;5052861;28;20208;-66
2022/12/30 11:22:49;;;;;;;0.00;0.00;;;9.60;99.90;;;;;;5052554;28;20282;-66
2022/12/30 11:25:30;;;;;;;0.00;0.00;;;9.70;99.90;;;;;;5052873;28;20577;-66
2022/12/30 11:27:58;;;;;;;0.00;0.00;;;9.80;99.90;;;;;;5052018;28;20204;-66
2022/12/30 11:30:49;;;;;;;0.00;0.00;;;9.90;99.90;;;;;;5052634;28;20200;-66
2022/12/30 11:33:31;;;;;;;0.00;0.00;;;10.10;99.90;;;;;;5048711;28;20286;-66
2022/12/30 11:36:15;;;;;;;0.00;0.00;;;10.20;99.90;;;;;;5051878;28;20200;-66
2022/12/30 11:38:43;;;;;;;0.00;0.00;;;10.30;99.90;;;;;;5052720;28;20279;-66
2022/12/30 11:41:17;;;;;;;0.00;0.00;;;10.40;99.90;;;;;;5052205;28;20189;-66
2022/12/30 11:44:03;;;;;;;0.00;0.00;;;10.40;99.90;;;;;;5051808;28;20181;-66
2022/12/30 11:46:49;;;;;;;0.00;0.00;;;10.40;99.90;;;;;;5053153;28;20197;-66
2022/12/30 11:49:37;;;;;;;0.00;0.00;;;10.50;99.90;;;;;;5063898;28;20184;-66
2022/12/30 11:52:03;;;;;;;0.00;0.00;;;10.50;99.90;;;;;;5052311;28;20621;-66
2022/12/30 11:54:53;;;;;;;0.63;0.55;;;10.50;99.90;;;;;;5052452;28;20185;-66
2022/12/30 11:57:26;;;;;;;0.00;0.00;;;10.50;99.90;;;;;;5051462;28;20243;-66
2022/12/30 11:59:58;;;;;;;0.00;0.00;;;10.60;99.90;;;;;;5052034;28;20276;-66
2022/12/30 12:02:34;;;;;;;0.00;0.00;;;10.60;99.90;;;;;;5052201;28;20173;-67
2022/12/30 12:05:00;;;;;;;0.00;0.00;;;10.60;99.90;;;;;;5051531;28;20184;-69
2022/12/30 12:07:45;;;;;;;0.00;0.00;;;10.60;99.90;;;;;;5051891;28;20177;-70
2022/12/30 12:10:19;;;;;;;0.00;0.00;;;10.60;99.90;;;;;;5031895;28;20200;-67
2022/12/30 12:13:14;;;;;;;0.00;0.00;;;10.60;99.90;;;;;;5045497;28;20253;-69
2022/12/30 12:15:48;;;;;;;0.00;0.00;;;10.50;99.90;;;;;;5051257;28;20196;-68
2022/12/30 12:18:33;;;;;;;0.00;0.00;;;10.40;99.90;;;;;;5051428;28;20258;-66
2022/12/30 12:21:28;;;;;;;0.00;0.00;;;10.30;99.90;;;;;;5051666;28;20264;-67
2022/12/30 12:24:13;;;;;;;0.03;0.03;;;10.30;99.90;;;;;;5048927;28;20189;-66
2022/12/30 12:26:42;;;;;;;0.00;0.00;;;10.30;99.90;;;;;;5051269;28;20174;-63
2022/12/30 12:29:12;;;;;;;0.10;0.10;;;10.30;99.90;;;;;;5051300;28;20178;-63
2022/12/30 12:31:57;;;;;;;0.10;0.10;;;10.30;99.90;;;;;;5050796;28;20212;-64
2022/12/30 12:34:22;;;;;;;0.47;0.47;;;10.30;99.90;;;;;;5050968;28;20217;-64
2022/12/30 12:37:07;;;;;;;0.00;0.00;;;10.20;99.90;;;;;;5051352;28;20185;-67
2022/12/30 12:39:48;;;;;;;0.00;0.00;;;10.20;99.90;;;;;;5050351;28;20656;-66
2022/12/30 12:42:48;;;;;;;0.00;0.00;;;10.30;99.90;;;;;;5050661;28;20238;-66
2022/12/30 12:45:43;;;;;;;0.00;0.00;;;10.20;99.90;;;;;;5052547;28;20242;-66
2022/12/30 12:48:33;;;;;;;0.00;0.00;;;10.20;99.90;;;;;;5055685;28;20295;-66
2022/12/30 12:51:13;;;;;;;0.00;0.00;;;10.20;99.90;;;;;;5054516;28;20181;-66
2022/12/30 12:54:04;;;;;;;0.00;0.00;;;10.20;99.90;;;;;;5055549;28;20252;-66
2022/12/30 12:56:36;;;;;;;0.00;0.00;;;10.10;99.90;;;;;;5055771;28;20698;-66
2022/12/30 12:59:21;;;;;;;0.03;0.03;;;10.10;99.90;;;;;;5055649;28;20169;-66
2022/12/30 13:02:22;;;;;;;0.00;0.00;;;10.00;99.90;;;;;;5055662;28;20227;-66
2022/12/30 13:05:01;;;;;;;0.00;0.00;;;10.00;99.90;;;;;;5054277;28;20176;-66
2022/12/30 13:08:03;;;;;;;0.00;0.00;;;9.90;99.90;;;;;;5054301;28;20181;-66
2022/12/30 13:10:43;;;;;;;0.00;0.00;;;9.80;99.90;;;;;;5055390;28;20199;-66
2022/12/30 13:13:28;;;;;;;0.00;0.00;;;9.80;99.90;;;;;;5055306;28;20340;-66
2022/12/30 13:16:00;;;;;;;0.00;0.00;;;9.80;99.90;;;;;;5055279;28;20659;-66
2022/12/30 13:18:27;;;;;;;0.00;0.00;;;9.70;99.90;;;;;;5055453;28;20185;-66
2022/12/30 13:20:58;;;;;;;0.00;0.00;;;9.70;99.90;;;;;;5053467;28;20255;-66
2022/12/30 13:23:26;;;;;;;0.00;0.00;;;9.80;99.90;;;;;;5044572;28;20217;-66
2022/12/30 13:25:57;;;;;;;0.00;0.00;;;9.70;99.90;;;;;;5035131;28;20225;-66
2022/12/30 13:28:26;;;;;;;0.00;0.00;;;9.70;99.90;;;;;;5035209;28;20182;-66
2022/12/30 13:31:10;;;;;;;0.00;0.00;;;9.70;99.90;;;;;;5054423;28;20208;-66
2022/12/30 13:34:20;;;;;;;0.00;0.00;;;9.70;99.90;;;;;;5054876;28;20244;-66
2022/12/30 13:36:54;;;;;;;0.00;0.00;;;9.70;99.90;;;;;;5049361;28;20181;-66
2022/12/30 13:39:46;;;;;;;0.00;0.00;;;9.80;99.90;;;;;;5054913;28;20185;-67
2022/12/30 13:42:36;;;;;;;0.00;0.00;;;9.80;99.90;;;;;;5054782;28;20186;-66
2022/12/30 13:45:17;;;;;;;0.00;0.00;;;9.80;99.90;;;;;;5054796;28;20649;-65
2022/12/30 13:47:43;;;;;;;0.00;0.00;;;9.80;99.90;;;;;;5054769;28;20268;-66
2022/12/30 13:50:19;;;;;;;0.00;0.00;;;9.80;99.90;;;;;;5054696;28;20213;-66
2022/12/30 13:52:51;;;;;;;0.00;0.00;;;9.80;99.90;;;;;;5054649;28;20201;-66
2022/12/30 13:55:22;;;;;;;0.00;0.00;;;9.80;99.90;;;;;;5054741;28;20244;-66
2022/12/30 13:57:52;;;;;;;0.00;0.00;;;9.80;99.90;;;;;;5054224;28;20176;-65
2022/12/30 14:00:27;;;;;;;0.00;0.00;;;9.70;99.90;;;;;;5054537;28;20170;-65
2022/12/30 14:03:01;;;;;;;0.00;0.00;;;9.70;99.90;;;;;;5054362;28;20180;-66
2022/12/30 14:05:39;;;;;;;0.00;0.00;;;9.70;99.90;;;;;;5054475;28;20210;-66
2022/12/30 14:08:40;;;;;;;0.00;0.00;;;9.60;99.90;;;;;;5054336;28;20204;-65
2022/12/30 14:11:13;;;;;;;0.00;0.00;;;9.60;99.90;;;;;;5054156;28;20221;-66
2022/12/30 14:13:41;;;;;;;0.00;0.00;;;9.60;99.90;;;;;;5054172;28;20213;-66